createdAt,value
2018-07-03T00:00:29.616Z,50.10
2018-07-03T00:02:58.569Z,50.10
2018-07-03T00:05:27.489Z,50.00
2018-07-03T00:07:56.259Z,50.00
2018-07-03T00:10:25.086Z,50.00
2018-07-03T00:12:54.021Z,50.10
2018-07-03T00:15:25.686Z,50.30
2018-07-03T00:17:54.648Z,50.30
2018-07-03T00:20:23.377Z,50.30
2018-07-03T00:22:52.349Z,50.60
2018-07-03T00:25:21.235Z,50.90
2018-07-03T00:27:50.013Z,50.90
2018-07-03T00:30:18.855Z,51.00
2018-07-03T00:32:47.747Z,51.10
2018-07-03T00:35:16.562Z,51.20
2018-07-03T00:37:45.656Z,51.10
2018-07-03T00:40:14.477Z,51.10
2018-07-03T00:42:43.651Z,51.00
2018-07-03T00:45:12.601Z,51.10
2018-07-03T00:47:41.561Z,50.90
2018-07-03T00:50:10.479Z,51.10
2018-07-03T00:52:39.285Z,51.10
2018-07-03T00:55:08.262Z,51.10
2018-07-03T00:57:37.284Z,51.20
2018-07-03T01:00:17.223Z,51.30
2018-07-03T01:02:47.010Z,51.40
2018-07-03T01:05:15.886Z,51.50
2018-07-03T01:07:44.775Z,51.50
2018-07-03T01:10:14.977Z,51.70
2018-07-03T01:12:43.850Z,51.70
2018-07-03T01:15:12.990Z,51.90
2018-07-03T01:17:41.938Z,52.00
2018-07-03T01:20:10.898Z,51.70
2018-07-03T01:22:39.887Z,51.90
2018-07-03T01:25:08.732Z,52.00
2018-07-03T01:27:37.648Z,52.20
2018-07-03T01:30:06.581Z,52.20
2018-07-03T01:32:35.581Z,52.20
2018-07-03T01:35:04.483Z,52.30
2018-07-03T01:37:33.295Z,52.40
2018-07-03T01:40:02.162Z,52.20
2018-07-03T01:42:31.093Z,52.50
2018-07-03T01:44:59.926Z,52.40
2018-07-03T01:47:28.754Z,52.50
2018-07-03T01:49:57.745Z,52.50
2018-07-03T01:52:26.588Z,52.70
2018-07-03T01:54:55.418Z,52.80
2018-07-03T01:57:24.479Z,52.90
2018-07-03T01:59:53.390Z,53.00
2018-07-03T02:02:22.417Z,52.90
2018-07-03T02:04:51.341Z,52.70
2018-07-03T02:07:20.329Z,52.70
2018-07-03T02:09:49.129Z,52.60
2018-07-03T02:12:17.895Z,53.40
2018-07-03T02:14:46.822Z,52.90
2018-07-03T02:17:15.696Z,53.00
2018-07-03T02:19:44.965Z,53.20
2018-07-03T02:22:13.797Z,53.40
2018-07-03T02:24:43.116Z,53.40
2018-07-03T02:27:12.197Z,53.50
2018-07-03T02:29:41.298Z,53.90
2018-07-03T02:32:10.398Z,53.90
2018-07-03T02:34:39.411Z,53.90
2018-07-03T02:37:08.602Z,54.00
2018-07-03T02:39:37.661Z,53.90
2018-07-03T02:42:06.829Z,54.00
2018-07-03T02:44:35.685Z,54.30
2018-07-03T02:47:04.867Z,54.30
2018-07-03T02:49:33.934Z,54.50
2018-07-03T02:52:02.944Z,54.60
2018-07-03T02:54:32.916Z,54.80
2018-07-03T02:57:01.843Z,54.80
2018-07-03T02:59:30.918Z,54.80
2018-07-03T03:01:59.959Z,55.00
2018-07-03T03:04:28.938Z,54.90
2018-07-03T03:06:58.543Z,55.00
2018-07-03T03:09:27.383Z,55.00
2018-07-03T03:11:56.421Z,55.00
2018-07-03T03:14:25.273Z,55.20
2018-07-03T03:16:54.162Z,55.60
2018-07-03T03:19:23.021Z,55.80
2018-07-03T03:21:51.885Z,55.90
2018-07-03T03:24:20.806Z,55.90
2018-07-03T03:26:49.597Z,56.10
2018-07-03T03:29:18.505Z,55.90
2018-07-03T03:31:47.353Z,56.10
2018-07-03T03:34:16.299Z,56.00
2018-07-03T03:36:45.270Z,56.30
2018-07-03T03:39:14.111Z,56.50
2018-07-03T03:41:43.147Z,56.60
2018-07-03T03:44:12.029Z,56.70
2018-07-03T03:46:41.149Z,57.00
2018-07-03T03:49:10.111Z,57.00
2018-07-03T03:51:38.969Z,57.00
2018-07-03T03:54:08.104Z,56.90
2018-07-03T03:56:37.144Z,56.90
2018-07-03T03:59:06.116Z,57.10
2018-07-03T04:01:35.026Z,57.40
2018-07-03T04:04:03.936Z,57.40
2018-07-03T04:06:32.898Z,57.70
2018-07-03T04:09:01.842Z,57.80
2018-07-03T04:11:30.648Z,57.70
2018-07-03T04:13:59.510Z,57.90
2018-07-03T04:16:28.417Z,57.80
2018-07-03T04:18:57.181Z,57.60
2018-07-03T04:21:25.971Z,58.40
2018-07-03T04:23:54.792Z,58.20
2018-07-03T04:26:23.630Z,57.90
2018-07-03T04:28:52.577Z,58.20
2018-07-03T04:31:21.415Z,58.10
2018-07-03T04:33:50.385Z,58.10
2018-07-03T04:36:19.217Z,58.10
2018-07-03T04:38:48.045Z,58.40
2018-07-03T04:41:16.925Z,58.10
2018-07-03T04:43:45.785Z,58.30
2018-07-03T04:51:48.645Z,58.70
2018-07-03T04:54:17.401Z,58.40
2018-07-03T04:56:46.214Z,58.20
2018-07-03T04:59:21.922Z,58.30
2018-07-03T05:01:51.032Z,58.60
2018-07-03T05:04:20.012Z,58.40
2018-07-03T05:06:49.175Z,58.20
2018-07-03T05:10:04.607Z,58.50
2018-07-03T05:12:33.654Z,58.10
2018-07-03T05:15:02.581Z,58.10
2018-07-03T05:17:31.530Z,58.00
2018-07-03T05:20:00.497Z,57.80
2018-07-03T05:22:29.417Z,57.80
2018-07-03T05:24:58.291Z,57.70
2018-07-03T05:27:27.378Z,57.40
2018-07-03T05:30:17.066Z,57.50
2018-07-03T05:32:48.510Z,57.50
2018-07-03T05:35:17.557Z,57.30
2018-07-03T05:37:47.293Z,57.50
2018-07-03T05:40:16.169Z,57.20
2018-07-03T06:19:55.885Z,56.00
2018-07-03T07:06:20.343Z,49.00
2018-07-03T07:09:09.214Z,48.80
2018-07-03T07:52:29.348Z,47.10
2018-07-03T08:01:20.883Z,46.00
2018-07-03T08:13:50.827Z,46.30
2018-07-03T08:16:21.824Z,46.70
2018-07-03T08:19:14.080Z,44.60
2018-07-03T08:21:54.983Z,44.40
2018-07-03T08:24:24.914Z,44.30
2018-07-03T08:27:13.577Z,44.40
2018-07-03T08:30:09.377Z,43.60
2018-07-03T08:32:38.410Z,42.10
2018-07-03T08:35:07.842Z,42.60
2018-07-03T08:37:36.900Z,43.10
2018-07-03T08:40:07.113Z,43.20
2018-07-03T08:42:36.912Z,43.00
2018-07-03T08:47:13.712Z,41.40
2018-07-03T08:49:42.736Z,39.60
2018-07-03T08:52:11.782Z,41.60
2018-07-03T08:54:40.927Z,40.50
2018-07-03T08:57:09.954Z,40.60
2018-07-03T08:59:39.045Z,41.20
2018-07-03T09:02:08.094Z,39.50
2018-07-03T09:49:25.758Z,32.10
2018-07-03T09:52:06.761Z,32.20
2018-07-03T10:05:34.062Z,31.60
2018-07-03T10:08:02.726Z,31.80
2018-07-03T10:10:31.421Z,31.80
2018-07-03T10:13:00.187Z,31.80
2018-07-03T10:15:29.192Z,30.40
2018-07-03T10:17:57.898Z,30.60
2018-07-03T10:20:26.584Z,30.40
2018-07-03T10:22:55.294Z,30.00
2018-07-03T10:25:24.090Z,29.00
2018-07-03T10:27:52.857Z,29.10
2018-07-03T10:30:22.004Z,28.40
2018-07-03T10:32:50.951Z,29.20
2018-07-03T10:35:19.603Z,30.00
2018-07-03T10:37:48.248Z,29.70
